LiveATC.Net - Listen to live air traffic control over the Internet!


ICAO: YBAS  IATA: ASP   Airport: Alice Springs Airport
City: Alice Springs   State/Province: Northern Territory
Country: Australia   Continent: Oceania
YBAS METAR Weather: YBAS 192000Z AUTO 33004KT 9999 // NCD 01/M02 Q1024
YBAS Flight Activity (FlightAware)
YBAS Webcam:  (Airport Webcams) 

YBAS Tower/Center
Feed Status: UP   Listeners: 0
Listen in your browser - HTML5 player (in browser, HTML5)
Click here to listen with your own player (launches your MP3 player)
YBAS Tower/Center Audio Archives
FacilityFrequency
Alice Tower/CTAF118.300
Melbourne Center (above FL280)128.850
Melbourne Center (below FL280)119.800
Alice Springs Aircraft Movements

NOTICE

Unauthorized use prohibited. See LiveATC.net Terms of Service


Find LiveATC Audio Streams


Airport/ARTCC Code

Frequency Search
(e.g., 124.400, 128.75)
Site-wide search
 


Browse LiveATC Feeds
Top 50 LiveATC Feeds
LiveATC Feed Map
Bad Weather Areas

LiveATC FAQ
Offer LiveATC feed
Contact LiveATC.net
Press Inquiries

LiveATC on iPhone
LiveATC on Android

Windows Phone
Windows 8/10

LiveATC Mobile
(Mobile browser)

ATC Audio Archives
Interesting Recordings

LiveATC Forums


Home Page
About LiveATC.net
Make a Donation
Terms of Use
Privacy Policy

Canadian Air Freqs

AIRMETs/SIGMETs

FAA Airport Status
Nat'l Airspace Status
Arrival Demand Charts


Server Software By:
Icecast.org
Liquidsoap